createdAt,value
2019-02-14T00:01:20.496Z,3.37
2019-02-14T00:03:50.939Z,3.57
2019-02-14T00:06:21.492Z,4.20
2019-02-14T00:08:51.943Z,3.67
2019-02-14T00:11:22.430Z,4.03
2019-02-14T00:13:52.874Z,4.57
2019-02-14T00:16:23.323Z,3.73
2019-02-14T00:18:53.812Z,3.83
2019-02-14T00:21:24.328Z,3.23
2019-02-14T00:23:54.764Z,3.63
2019-02-14T00:26:25.213Z,3.23
2019-02-14T00:28:55.683Z,3.30
2019-02-14T00:31:26.165Z,3.30
2019-02-14T00:33:56.651Z,3.60
2019-02-14T00:36:27.096Z,3.60
2019-02-14T00:38:57.605Z,4.00
2019-02-14T00:41:28.099Z,4.50
2019-02-14T00:43:58.588Z,3.80
2019-02-14T00:46:29.043Z,3.63
2019-02-14T00:48:59.553Z,3.30
2019-02-14T00:51:30.052Z,3.67
2019-02-14T00:54:00.552Z,3.03
2019-02-14T00:56:31.003Z,3.07
2019-02-14T00:59:02.633Z,3.33
2019-02-14T01:01:32.978Z,3.17
2019-02-14T01:04:03.379Z,2.90
2019-02-14T01:06:33.827Z,2.87
2019-02-14T01:09:04.665Z,3.47
2019-02-14T01:11:35.160Z,2.70
2019-02-14T01:14:05.807Z,3.13
2019-02-14T01:16:36.292Z,2.87
2019-02-14T01:19:06.779Z,2.60
2019-02-14T01:21:37.219Z,2.90
2019-02-14T01:24:07.694Z,2.87
2019-02-14T01:26:38.200Z,2.93
2019-02-14T01:29:08.633Z,2.90
2019-02-14T01:31:39.132Z,3.30
2019-02-14T01:34:09.582Z,3.43
2019-02-14T01:36:40.053Z,3.47
2019-02-14T01:39:10.498Z,4.20
2019-02-14T01:41:40.961Z,3.17
2019-02-14T01:44:11.419Z,2.97
2019-02-14T01:46:41.866Z,3.43
2019-02-14T01:49:12.277Z,3.00
2019-02-14T01:51:42.782Z,2.87
2019-02-14T01:54:13.235Z,2.97
2019-02-14T01:56:43.684Z,3.53
2019-02-14T01:59:14.151Z,2.97
2019-02-14T02:01:44.640Z,2.60
2019-02-14T02:04:15.167Z,2.67
2019-02-14T02:06:45.660Z,2.33
2019-02-14T02:09:16.113Z,2.50
2019-02-14T02:11:46.599Z,3.20
2019-02-14T02:14:17.045Z,2.40
2019-02-14T02:16:47.638Z,2.93
2019-02-14T02:19:18.104Z,2.67
2019-02-14T02:21:48.603Z,2.80
2019-02-14T02:24:19.102Z,2.27
2019-02-14T02:26:49.607Z,3.67
2019-02-14T02:29:20.114Z,2.70
2019-02-14T02:31:50.609Z,2.53
2019-02-14T02:34:21.087Z,2.77
2019-02-14T02:36:51.579Z,2.43
2019-02-14T02:39:22.037Z,2.83
2019-02-14T02:41:52.547Z,2.60
2019-02-14T02:44:22.995Z,2.67
2019-02-14T02:46:53.462Z,2.27
2019-02-14T02:49:23.971Z,2.70
2019-02-14T02:51:54.424Z,2.50
2019-02-14T02:54:24.878Z,2.73
2019-02-14T02:56:55.342Z,2.60
2019-02-14T02:59:25.840Z,2.90
2019-02-14T03:01:56.293Z,3.63
2019-02-14T03:04:26.779Z,3.07
2019-02-14T03:06:57.239Z,6.13
2019-02-14T03:09:27.692Z,5.90
2019-02-14T03:11:58.174Z,5.63
2019-02-14T03:14:28.682Z,2.30
2019-02-14T03:16:59.216Z,4.10
2019-02-14T03:19:29.680Z,2.60
2019-02-14T03:22:00.221Z,2.63
2019-02-14T03:24:30.679Z,3.10
2019-02-14T03:27:01.177Z,2.70
2019-02-14T03:29:31.790Z,4.40
2019-02-14T03:32:02.276Z,3.30
2019-02-14T03:34:32.723Z,2.33
2019-02-14T03:37:03.230Z,3.37
2019-02-14T03:39:33.711Z,4.57
2019-02-14T03:42:04.183Z,2.47
2019-02-14T03:44:34.811Z,4.03
2019-02-14T03:47:05.251Z,2.83
2019-02-14T03:49:35.748Z,3.57
2019-02-14T03:52:06.199Z,3.87
2019-02-14T03:54:36.645Z,2.57
2019-02-14T03:57:07.137Z,2.90
2019-02-14T03:59:37.625Z,2.57
2019-02-14T04:02:08.112Z,2.90
2019-02-14T04:04:38.580Z,3.30
2019-02-14T04:07:09.238Z,3.57
2019-02-14T04:09:39.696Z,2.60
2019-02-14T04:12:10.200Z,5.20
2019-02-14T04:14:40.655Z,7.77
2019-02-14T04:17:11.246Z,3.13
2019-02-14T04:19:41.738Z,4.40
2019-02-14T04:22:12.304Z,2.93
2019-02-14T04:24:42.819Z,3.63
2019-02-14T04:27:13.267Z,2.80
2019-02-14T04:29:43.748Z,3.80
2019-02-14T04:32:14.202Z,3.93
2019-02-14T04:34:44.679Z,2.80
2019-02-14T04:37:15.176Z,5.23
2019-02-14T04:39:45.669Z,2.87
2019-02-14T04:42:16.134Z,4.60
2019-02-14T04:44:46.626Z,4.00
2019-02-14T04:47:17.067Z,4.67
2019-02-14T04:49:47.520Z,3.80
2019-02-14T04:52:18.009Z,6.53
2019-02-14T04:54:48.453Z,2.93
2019-02-14T04:57:18.948Z,3.93
2019-02-14T04:59:49.403Z,6.23
2019-02-14T05:02:19.925Z,3.70
2019-02-14T05:04:50.393Z,4.53
2019-02-14T05:07:20.889Z,9.80
2019-02-14T05:09:51.350Z,3.87
2019-02-14T05:12:21.856Z,9.40
2019-02-14T05:14:52.330Z,6.07
2019-02-14T05:17:22.839Z,15.20
2019-02-14T05:19:53.315Z,5.87
2019-02-14T05:22:23.927Z,8.93
2019-02-14T05:24:54.368Z,4.43
2019-02-14T05:27:24.821Z,6.17
2019-02-14T05:29:55.330Z,4.97
2019-02-14T05:32:25.782Z,4.00
2019-02-14T05:34:56.226Z,4.60
2019-02-14T05:37:26.726Z,4.07
2019-02-14T05:39:57.213Z,3.77
2019-02-14T05:42:27.668Z,5.57
2019-02-14T05:44:58.155Z,5.60
2019-02-14T05:47:28.625Z,8.03
2019-02-14T05:49:59.124Z,8.17
2019-02-14T05:52:29.580Z,12.70
2019-02-14T05:55:00.129Z,4.13
2019-02-14T05:57:30.577Z,4.43
2019-02-14T06:00:01.071Z,3.63
2019-02-14T06:02:34.770Z,6.20
2019-02-14T06:05:05.544Z,12.57
2019-02-14T06:07:36.082Z,4.37
2019-02-14T06:10:07.681Z,4.57
2019-02-14T06:12:38.527Z,9.57
2019-02-14T06:15:09.827Z,5.90
2019-02-14T06:17:40.506Z,4.83
2019-02-14T06:20:11.018Z,16.07
2019-02-14T06:22:41.680Z,16.60
2019-02-14T06:25:12.595Z,8.40
2019-02-14T06:27:43.130Z,9.00
2019-02-14T06:30:14.338Z,21.13
2019-02-14T06:32:44.864Z,10.30
2019-02-14T06:35:15.572Z,8.63
2019-02-14T06:37:46.085Z,12.37
2019-02-14T06:40:16.580Z,6.60
2019-02-14T06:42:47.087Z,8.13
2019-02-14T06:45:17.704Z,6.70
2019-02-14T06:47:48.165Z,4.73
2019-02-14T06:50:18.686Z,5.63
2019-02-14T06:52:49.155Z,6.07
2019-02-14T06:55:19.657Z,10.90
2019-02-14T06:57:50.131Z,12.30
2019-02-14T07:00:20.668Z,8.63
2019-02-14T07:02:51.185Z,11.60
2019-02-14T07:05:23.185Z,7.73
2019-02-14T07:07:53.875Z,11.20
2019-02-14T07:10:25.007Z,6.70
2019-02-14T07:12:55.476Z,12.67
2019-02-14T07:15:25.977Z,6.07
2019-02-14T07:17:56.470Z,6.07
2019-02-14T07:20:27.023Z,5.83
2019-02-14T07:22:57.498Z,5.53
2019-02-14T07:25:27.971Z,6.63
2019-02-14T07:27:58.489Z,5.77
2019-02-14T07:30:28.995Z,7.60
2019-02-14T07:32:59.486Z,7.40
2019-02-14T07:35:29.944Z,9.13
2019-02-14T07:38:00.680Z,7.97
2019-02-14T07:40:31.165Z,5.43
2019-02-14T07:43:01.688Z,5.47
2019-02-14T07:45:32.378Z,10.13
2019-02-14T07:48:02.920Z,6.57
2019-02-14T07:50:33.564Z,12.30
2019-02-14T07:53:04.066Z,5.80
2019-02-14T07:55:34.603Z,10.27
2019-02-14T07:58:05.109Z,15.93
2019-02-14T08:00:35.692Z,6.23
2019-02-14T08:03:06.183Z,5.47
2019-02-14T08:05:36.680Z,5.83
2019-02-14T08:08:07.228Z,8.23
2019-02-14T08:10:39.752Z,7.70
2019-02-14T08:13:10.232Z,8.30
2019-02-14T08:15:40.691Z,7.60
2019-02-14T08:18:11.292Z,9.23
2019-02-14T08:20:41.822Z,10.20
2019-02-14T08:23:12.311Z,11.27
2019-02-14T08:25:42.809Z,11.57
2019-02-14T08:28:13.313Z,16.67
2019-02-14T08:30:43.789Z,8.53
2019-02-14T08:33:14.293Z,7.00
2019-02-14T08:35:44.845Z,8.87
2019-02-14T08:38:15.377Z,7.53
2019-02-14T08:40:45.858Z,18.53
2019-02-14T08:43:17.715Z,6.17
2019-02-14T08:45:48.227Z,8.93
2019-02-14T08:48:18.888Z,7.50
2019-02-14T08:50:49.393Z,9.67
2019-02-14T08:53:19.877Z,12.50
2019-02-14T08:55:50.392Z,8.43
2019-02-14T08:58:20.887Z,9.93
2019-02-14T09:00:51.497Z,10.93
2019-02-14T09:03:22.032Z,14.13
2019-02-14T09:05:52.538Z,6.57
2019-02-14T09:08:23.081Z,5.50
2019-02-14T09:10:53.602Z,11.10
2019-02-14T09:13:24.125Z,4.80
2019-02-14T09:15:54.587Z,13.33
2019-02-14T09:18:25.109Z,12.37
2019-02-14T09:20:55.617Z,5.97
2019-02-14T09:23:26.149Z,6.13
2019-02-14T09:25:56.713Z,4.93
2019-02-14T09:28:27.215Z,9.10
2019-02-14T09:30:57.709Z,5.67
2019-02-14T09:33:28.172Z,6.87
2019-02-14T09:35:58.697Z,7.03
2019-02-14T09:38:29.162Z,11.37
2019-02-14T09:40:59.659Z,4.90
2019-02-14T09:43:30.305Z,9.20
2019-02-14T09:46:00.855Z,5.70
2019-02-14T09:48:31.376Z,10.87
2019-02-14T09:51:01.927Z,8.37
2019-02-14T09:53:32.419Z,15.70
2019-02-14T09:56:03.036Z,11.57
2019-02-14T09:58:33.594Z,12.97
2019-02-14T10:01:04.133Z,12.97
2019-02-14T10:03:34.599Z,9.37
2019-02-14T10:06:05.124Z,8.30
2019-02-14T10:08:35.615Z,7.43
2019-02-14T10:11:07.064Z,6.23
2019-02-14T10:13:37.619Z,7.73
2019-02-14T10:16:08.082Z,4.57
2019-02-14T10:18:38.587Z,6.17
2019-02-14T10:21:09.080Z,7.47
2019-02-14T10:23:39.573Z,4.63
2019-02-14T10:26:10.106Z,18.63
2019-02-14T10:28:40.667Z,5.63
2019-02-14T10:31:11.124Z,6.60
2019-02-14T10:33:41.591Z,6.20
2019-02-14T10:36:12.087Z,5.07
2019-02-14T10:38:42.553Z,8.90
2019-02-14T10:41:13.091Z,7.20
2019-02-14T10:43:48.830Z,5.97
2019-02-14T10:46:15.773Z,5.20
2019-02-14T10:48:46.276Z,5.50
2019-02-14T10:51:16.746Z,5.70
2019-02-14T10:53:47.254Z,6.50
2019-02-14T10:56:17.807Z,16.53
2019-02-14T10:58:48.308Z,4.50
2019-02-14T11:01:18.832Z,6.27
2019-02-14T11:03:49.316Z,10.23
2019-02-14T11:06:19.759Z,5.77
2019-02-14T11:08:50.267Z,7.73
2019-02-14T11:11:20.744Z,13.13
2019-02-14T11:13:51.258Z,5.17
2019-02-14T11:16:21.734Z,8.00
2019-02-14T11:18:52.336Z,6.10
2019-02-14T11:21:22.836Z,3.30
2019-02-14T11:23:53.295Z,3.93
2019-02-14T11:26:23.809Z,3.90
2019-02-14T11:28:54.309Z,7.07
2019-02-14T11:31:24.803Z,6.77
2019-02-14T11:33:55.352Z,5.17
2019-02-14T11:36:25.868Z,5.70
2019-02-14T11:38:56.320Z,6.57
2019-02-14T11:41:27.290Z,12.43
2019-02-14T11:43:58.293Z,4.13
2019-02-14T11:46:28.770Z,4.03
2019-02-14T11:48:59.283Z,6.23
2019-02-14T11:51:31.174Z,5.83
2019-02-14T11:54:03.753Z,4.30
2019-02-14T11:56:34.272Z,3.93
2019-02-14T11:59:06.987Z,10.33
2019-02-14T12:01:41.051Z,4.07
2019-02-14T12:04:11.564Z,7.50
2019-02-14T12:06:42.148Z,4.00
2019-02-14T12:09:12.723Z,8.03
2019-02-14T12:11:43.235Z,13.30
2019-02-14T12:14:13.701Z,13.03
2019-02-14T12:16:44.172Z,7.03
2019-02-14T12:19:14.680Z,3.77
2019-02-14T12:21:45.271Z,5.80
2019-02-14T12:24:16.316Z,7.30
2019-02-14T12:26:46.825Z,10.17
2019-02-14T12:29:17.349Z,14.70
2019-02-14T12:31:47.868Z,8.17
2019-02-14T12:34:18.383Z,4.03
2019-02-14T12:36:48.888Z,7.57
2019-02-14T12:39:19.397Z,5.83
2019-02-14T12:41:49.889Z,7.43
2019-02-14T12:44:20.399Z,4.87
2019-02-14T12:46:50.901Z,6.77
2019-02-14T12:49:21.386Z,4.30
2019-02-14T12:51:51.882Z,14.63
2019-02-14T12:54:23.340Z,6.07
2019-02-14T12:56:53.902Z,9.43
2019-02-14T12:59:24.496Z,7.47
2019-02-14T13:01:55.351Z,7.90
2019-02-14T13:04:25.824Z,8.50
2019-02-14T13:06:56.328Z,9.10
2019-02-14T13:09:26.819Z,5.23
2019-02-14T13:11:57.365Z,3.17
2019-02-14T13:14:28.154Z,3.50
2019-02-14T13:16:58.671Z,11.00
2019-02-14T13:19:29.354Z,19.43
2019-02-14T13:21:59.883Z,8.20
2019-02-14T13:24:30.325Z,4.57
2019-02-14T13:27:00.861Z,5.33
2019-02-14T13:29:31.415Z,3.43
2019-02-14T13:32:01.877Z,4.17
2019-02-14T13:34:32.388Z,4.57
2019-02-14T13:37:02.938Z,3.87
2019-02-14T13:39:33.450Z,3.97
2019-02-14T13:42:03.991Z,5.10
2019-02-14T13:44:34.495Z,3.50
2019-02-14T13:47:05.048Z,8.47
2019-02-14T13:49:35.563Z,8.13
2019-02-14T13:52:06.180Z,4.03
2019-02-14T13:54:36.664Z,4.13
2019-02-14T13:57:07.261Z,11.43
2019-02-14T13:59:38.129Z,6.87
2019-02-14T14:02:08.587Z,5.17
2019-02-14T14:04:39.093Z,6.00
2019-02-14T14:07:09.553Z,3.57
2019-02-14T14:09:40.005Z,3.87
2019-02-14T14:12:10.511Z,8.00
2019-02-14T14:14:41.279Z,4.47
2019-02-14T14:17:11.809Z,5.37
2019-02-14T14:19:42.275Z,6.27
2019-02-14T14:22:12.911Z,7.87
2019-02-14T14:24:43.448Z,5.97
2019-02-14T14:27:14.923Z,7.10
2019-02-14T14:29:45.562Z,15.90
2019-02-14T14:32:16.118Z,5.03
2019-02-14T14:34:46.866Z,9.63
2019-02-14T14:37:17.367Z,23.03
2019-02-14T14:39:49.004Z,10.83
2019-02-14T14:42:36.962Z,9.63
2019-02-14T14:45:09.390Z,15.00
2019-02-14T14:47:39.882Z,9.47
2019-02-14T14:50:10.608Z,11.47
2019-02-14T14:52:41.184Z,20.30
2019-02-14T14:55:11.814Z,10.77
2019-02-14T14:57:42.434Z,10.70
2019-02-14T15:00:13.682Z,12.60
2019-02-14T15:02:44.246Z,7.90
2019-02-14T15:05:17.473Z,9.67
2019-02-14T15:07:47.986Z,8.03
2019-02-14T15:10:18.547Z,14.67
2019-02-14T15:12:49.151Z,34.27
2019-02-14T15:15:19.639Z,9.33
2019-02-14T15:17:50.446Z,17.63
2019-02-14T15:20:21.191Z,9.60
2019-02-14T15:22:51.835Z,11.63
2019-02-14T15:25:24.822Z,9.97
2019-02-14T15:27:55.855Z,7.47
2019-02-14T15:30:26.630Z,9.87
2019-02-14T15:32:57.588Z,8.97
2019-02-14T15:35:28.249Z,10.97
2019-02-14T15:38:01.441Z,10.50
2019-02-14T15:40:32.251Z,5.17
2019-02-14T15:43:05.561Z,7.20
2019-02-14T15:45:36.075Z,6.30
2019-02-14T15:48:06.588Z,5.37
2019-02-14T15:50:37.060Z,5.40
2019-02-14T15:53:07.822Z,7.33
2019-02-14T15:55:38.984Z,4.83
2019-02-14T15:58:10.453Z,7.57
2019-02-14T16:00:41.113Z,7.77
2019-02-14T16:03:11.621Z,5.70
2019-02-14T16:05:42.688Z,5.77
2019-02-14T16:08:13.327Z,6.27
2019-02-14T16:10:44.005Z,9.80
2019-02-14T16:13:14.509Z,10.37
2019-02-14T16:15:45.020Z,4.63
2019-02-14T16:18:15.541Z,6.30
2019-02-14T16:20:46.103Z,4.80
2019-02-14T16:23:16.618Z,5.87
2019-02-14T16:25:47.088Z,6.77
2019-02-14T16:28:17.666Z,5.70
2019-02-14T16:30:48.097Z,7.90
2019-02-14T16:33:18.556Z,10.27
2019-02-14T16:35:49.051Z,9.90
2019-02-14T16:38:19.558Z,11.07
2019-02-14T16:40:50.018Z,9.77
2019-02-14T16:43:20.533Z,12.70
2019-02-14T16:45:51.055Z,10.13
2019-02-14T16:48:21.523Z,10.10
2019-02-14T16:50:52.024Z,8.57
2019-02-14T16:53:22.471Z,13.87
2019-02-14T16:56:01.683Z,7.87
2019-02-14T16:58:25.103Z,8.33
2019-02-14T17:00:55.588Z,8.47
2019-02-14T17:03:26.048Z,8.40
2019-02-14T17:05:56.553Z,10.27
2019-02-14T17:08:27.005Z,7.37
2019-02-14T17:10:57.453Z,7.80
2019-02-14T17:13:27.957Z,13.23
2019-02-14T17:15:58.424Z,14.10
2019-02-14T17:18:28.882Z,9.93
2019-02-14T17:20:59.402Z,9.17
2019-02-14T17:23:29.848Z,8.53
2019-02-14T17:26:00.363Z,11.27
2019-02-14T17:28:30.829Z,11.87
2019-02-14T17:31:01.300Z,10.17
2019-02-14T17:33:31.809Z,14.63
2019-02-14T17:36:02.285Z,11.87
2019-02-14T17:38:32.777Z,9.57
2019-02-14T17:41:03.285Z,8.93
2019-02-14T17:43:33.737Z,8.50
2019-02-14T17:46:04.338Z,7.50
2019-02-14T17:48:34.848Z,11.40
2019-02-14T17:51:06.627Z,8.57
2019-02-14T17:53:38.445Z,6.77
2019-02-14T17:56:28.391Z,7.40
2019-02-14T17:59:18.110Z,6.07
2019-02-14T18:01:48.565Z,6.30
2019-02-14T18:04:19.053Z,7.17
2019-02-14T18:06:49.494Z,6.73
2019-02-14T18:09:20.008Z,6.90
2019-02-14T18:11:50.517Z,9.33
2019-02-14T18:14:20.984Z,7.83
2019-02-14T18:16:51.500Z,8.80
2019-02-14T18:19:21.965Z,8.53
2019-02-14T18:21:52.432Z,8.63
2019-02-14T18:24:22.887Z,9.43
2019-02-14T18:26:53.398Z,11.40
2019-02-14T18:29:23.916Z,10.03
2019-02-14T18:31:54.423Z,8.90
2019-02-14T18:34:24.966Z,10.53
2019-02-14T18:36:55.421Z,10.80
2019-02-14T18:39:25.904Z,11.83
2019-02-14T18:41:56.416Z,12.67
2019-02-14T18:44:26.883Z,13.87
2019-02-14T18:46:57.417Z,13.73
2019-02-14T18:49:27.880Z,16.17
2019-02-14T18:51:58.343Z,14.10
2019-02-14T18:54:28.850Z,13.50
2019-02-14T18:56:59.304Z,13.30
2019-02-14T18:59:29.789Z,14.50
2019-02-14T19:02:00.277Z,12.83
2019-02-14T19:04:30.755Z,12.93
2019-02-14T19:07:01.362Z,12.57
2019-02-14T19:09:31.828Z,19.30
2019-02-14T19:12:02.291Z,14.53
2019-02-14T19:14:32.845Z,11.43
2019-02-14T19:17:03.425Z,12.87
2019-02-14T19:19:33.938Z,12.87
2019-02-14T19:22:04.507Z,11.77
2019-02-14T19:24:35.043Z,11.77
2019-02-14T19:27:05.514Z,13.77
2019-02-14T19:29:36.428Z,12.00
2019-02-14T19:32:06.997Z,13.53
2019-02-14T19:34:37.458Z,13.83
2019-02-14T19:37:07.974Z,12.33
2019-02-14T19:39:38.431Z,13.70
2019-02-14T19:42:08.941Z,12.53
2019-02-14T19:44:39.425Z,12.60
2019-02-14T19:47:09.886Z,12.33
2019-02-14T19:49:40.511Z,12.90
2019-02-14T19:52:12.035Z,13.73
2019-02-14T19:54:42.574Z,13.33
2019-02-14T19:57:13.081Z,13.10
2019-02-14T19:59:43.542Z,13.37
2019-02-14T20:02:14.050Z,12.90
2019-02-14T20:04:44.568Z,13.67
2019-02-14T20:07:15.129Z,13.90
2019-02-14T20:09:45.650Z,14.30
2019-02-14T20:12:16.123Z,14.00
2019-02-14T20:14:46.651Z,13.53
2019-02-14T20:17:17.822Z,14.80
2019-02-14T20:19:48.389Z,15.13
2019-02-14T20:22:18.866Z,14.10
2019-02-14T20:24:49.404Z,15.57
2019-02-14T20:27:19.879Z,14.33
2019-02-14T20:29:50.421Z,15.53
2019-02-14T20:32:20.915Z,15.73
2019-02-14T20:34:51.420Z,16.33
2019-02-14T20:37:21.941Z,16.07
2019-02-14T20:39:52.394Z,18.20
2019-02-14T20:42:23.042Z,17.37
2019-02-14T20:44:54.997Z,16.40
2019-02-14T20:47:25.862Z,16.37
2019-02-14T20:49:56.908Z,17.37
2019-02-14T20:52:28.023Z,16.47
2019-02-14T20:54:58.847Z,17.53
2019-02-14T20:57:29.307Z,16.03
2019-02-14T20:59:59.940Z,15.77
2019-02-14T21:02:30.441Z,15.37
2019-02-14T21:05:00.907Z,15.27
2019-02-14T21:07:31.389Z,14.80
2019-02-14T21:10:01.872Z,14.17
2019-02-14T21:12:32.373Z,14.40
2019-02-14T21:15:02.953Z,14.03
2019-02-14T21:17:33.476Z,14.17
2019-02-14T21:20:03.950Z,15.40
2019-02-14T21:22:34.480Z,16.80
2019-02-14T21:25:05.105Z,17.17
2019-02-14T21:27:35.634Z,10.53
2019-02-14T21:30:06.313Z,5.50
2019-02-14T21:32:36.819Z,5.50
2019-02-14T21:35:07.707Z,5.50
2019-02-14T21:37:38.258Z,6.23
2019-02-14T21:40:10.293Z,6.57
2019-02-14T21:42:40.903Z,6.30
2019-02-14T21:45:12.551Z,7.33
2019-02-14T21:47:43.043Z,7.70
2019-02-14T21:50:13.884Z,7.50
2019-02-14T21:52:44.404Z,8.70
2019-02-14T21:55:15.027Z,7.83
2019-02-14T21:57:45.527Z,7.73
2019-02-14T22:00:18.049Z,8.03
2019-02-14T22:02:49.001Z,8.07
2019-02-14T22:05:24.389Z,7.47
2019-02-14T22:07:51.991Z,7.80
2019-02-14T22:10:22.765Z,7.63
2019-02-14T22:12:53.314Z,8.57
2019-02-14T22:15:23.994Z,9.20
2019-02-14T22:17:54.538Z,7.97
2019-02-14T22:20:24.992Z,9.57
2019-02-14T22:22:55.432Z,10.30
2019-02-14T22:25:25.999Z,10.53
2019-02-14T22:27:56.536Z,10.87
2019-02-14T22:30:27.037Z,12.17
2019-02-14T22:32:57.511Z,12.43
2019-02-14T22:35:28.130Z,12.97
2019-02-14T22:37:58.604Z,13.37
2019-02-14T22:40:29.109Z,12.57
2019-02-14T22:42:59.638Z,13.47
2019-02-14T22:45:30.181Z,12.37
2019-02-14T22:48:00.665Z,12.33
2019-02-14T22:50:31.183Z,11.60
2019-02-14T22:53:01.674Z,11.93
2019-02-14T22:55:32.189Z,11.30
2019-02-14T22:58:02.706Z,11.93
2019-02-14T23:00:45.686Z,12.90
2019-02-14T23:03:16.375Z,11.23
2019-02-14T23:05:46.931Z,11.70
2019-02-14T23:08:17.447Z,11.40
2019-02-14T23:10:48.014Z,12.17
2019-02-14T23:13:18.488Z,11.47
2019-02-14T23:15:49.002Z,10.77
2019-02-14T23:18:19.490Z,9.30
2019-02-14T23:20:49.929Z,8.90
2019-02-14T23:23:20.537Z,9.33
2019-02-14T23:25:50.987Z,10.67
2019-02-14T23:28:21.502Z,10.30
2019-02-14T23:30:52.003Z,10.27
2019-02-14T23:33:22.473Z,10.43
2019-02-14T23:35:53.001Z,9.73
2019-02-14T23:38:23.512Z,9.90
2019-02-14T23:40:54.045Z,10.77
2019-02-14T23:43:24.529Z,10.33
2019-02-14T23:45:55.000Z,9.77
2019-02-14T23:48:25.500Z,9.13
2019-02-14T23:50:55.956Z,9.33
2019-02-14T23:53:26.513Z,8.07
2019-02-14T23:55:57.003Z,8.00
2019-02-14T23:58:27.483Z,7.37
